Time;durP1;ratioP1;P1;durP2;ratioP2;P2;SDS_P1;SDS_P2;PMS_P1;PMS_P2;Temp;Humidity;BMP_temperature;BMP_pressure;BME280_temperature;BME280_humidity;BME280_pressure;Samples;Min_cycle;Max_cycle;Signal;HPM_P1;HPM_P2
2022/05/10 00:00:26;;;;;;;0.20;0.10;;;16.20;99.90;;;;;;25651940;23;20201;-71
2022/05/10 00:10:32;;;;;;;0.20;0.00;;;15.80;99.90;;;;;;25651482;23;20194;-71
2022/05/10 00:20:36;;;;;;;0.20;0.10;;;15.90;99.90;;;;;;25649175;23;20193;-71
2022/05/10 00:30:42;;;;;;;0.20;0.00;;;15.90;99.90;;;;;;25625263;23;20170;-70
2022/05/10 00:40:45;;;;;;;0.20;0.00;;;15.80;99.90;;;;;;25649787;23;20186;-71
2022/05/10 00:50:54;;;;;;;0.20;0.10;;;15.90;99.90;;;;;;25651548;23;20175;-71
2022/05/10 01:01:00;;;;;;;0.20;0.00;;;15.80;99.90;;;;;;25652281;23;20465;-72
2022/05/10 01:11:10;;;;;;;0.20;0.00;;;15.60;99.90;;;;;;25621343;23;20194;-70
2022/05/10 01:21:34;;;;;;;0.20;0.00;;;15.50;99.90;;;;;;25651982;23;20198;-71
2022/05/10 01:31:46;;;;;;;0.20;0.10;;;15.70;99.90;;;;;;25654054;23;20155;-71
2022/05/10 01:41:57;;;;;;;0.20;0.10;;;15.80;99.90;;;;;;25656182;23;20185;-71
2022/05/10 01:52:11;;;;;;;0.20;0.10;;;15.50;99.90;;;;;;25657033;23;20190;-72
2022/05/10 02:02:16;;;;;;;0.20;0.10;;;15.40;99.90;;;;;;25629204;23;20190;-70
2022/05/10 02:12:30;;;;;;;0.20;0.10;;;15.40;99.90;;;;;;25604733;23;20273;-70
2022/05/10 02:22:40;;;;;;;0.20;0.10;;;15.80;99.90;;;;;;25655207;23;20232;-69
2022/05/10 02:33:08;;;;;;;0.20;0.10;;;15.70;99.90;;;;;;25628879;23;20178;-70
2022/05/10 02:43:18;;;;;;;0.20;0.10;;;15.70;99.90;;;;;;25603250;23;20224;-70
2022/05/10 02:53:23;;;;;;;0.20;0.00;;;15.50;99.90;;;;;;25630207;23;20193;-71
2022/05/10 03:03:28;;;;;;;0.20;0.00;;;15.20;99.90;;;;;;25652035;23;20194;-71
2022/05/10 03:13:33;;;;;;;0.20;0.10;;;14.90;99.90;;;;;;25627260;23;20192;-71
2022/05/10 03:23:37;;;;;;;0.20;0.00;;;14.80;99.90;;;;;;25654139;23;20201;-72
2022/05/10 03:33:43;;;;;;;0.20;0.10;;;14.80;99.90;;;;;;25629078;23;20488;-71
2022/05/10 03:43:47;;;;;;;0.20;0.00;;;14.60;99.90;;;;;;25649922;23;20190;-71
2022/05/10 03:53:52;;;;;;;0.20;0.10;;;14.60;99.90;;;;;;25652565;23;20190;-71
2022/05/10 04:03:56;;;;;;;0.20;0.00;;;14.60;99.90;;;;;;25651022;23;20198;-71
2022/05/10 04:14:03;;;;;;;0.23;0.23;;;14.60;99.90;;;;;;25625073;23;20182;-71
2022/05/10 04:24:08;;;;;;;0.20;0.00;;;14.70;99.90;;;;;;25600788;23;20187;-71
2022/05/10 04:34:13;;;;;;;0.20;0.10;;;14.90;99.90;;;;;;25624119;23;20181;-71
2022/05/10 04:44:17;;;;;;;0.20;0.10;;;14.80;99.90;;;;;;25651615;23;20447;-72
2022/05/10 04:54:22;;;;;;;0.20;0.00;;;14.80;99.90;;;;;;25650456;23;20194;-70
2022/05/10 05:04:26;;;;;;;0.20;0.10;;;14.60;99.90;;;;;;25654858;23;20421;-72
2022/05/10 05:14:32;;;;;;;0.20;0.00;;;14.70;99.90;;;;;;25658039;23;20174;-72
2022/05/10 05:24:36;;;;;;;0.20;0.00;;;14.70;99.90;;;;;;25630082;23;20178;-71
2022/05/10 05:34:41;;;;;;;0.20;0.00;;;14.90;99.90;;;;;;25629696;23;20181;-70
2022/05/10 05:44:45;;;;;;;0.20;0.10;;;15.00;99.90;;;;;;25629483;23;20190;-72
2022/05/10 05:54:50;;;;;;;0.20;0.10;;;15.70;99.90;;;;;;25600363;23;20256;-74
2022/05/10 06:04:54;;;;;;;0.20;0.10;;;16.20;99.90;;;;;;25619083;23;20442;-69
2022/05/10 06:15:02;;;;;;;0.20;0.10;;;16.80;99.90;;;;;;25618286;23;20185;-73
2022/05/10 06:25:07;;;;;;;0.20;0.10;;;17.20;99.90;;;;;;25603192;23;20249;-71
2022/05/10 06:35:14;;;;;;;0.20;0.10;;;17.50;99.90;;;;;;25650611;23;20167;-70
2022/05/10 06:45:22;;;;;;;0.20;0.10;;;17.80;99.90;;;;;;25649639;23;20190;-68
2022/05/10 06:55:28;;;;;;;0.53;0.53;;;17.90;99.90;;;;;;25622225;23;20193;-74
2022/05/10 07:05:32;;;;;;;0.20;0.10;;;18.20;99.90;;;;;;25615330;23;20202;-73
2022/05/10 07:15:37;;;;;;;0.93;0.73;;;18.40;99.90;;;;;;25643497;23;20185;-73
2022/05/10 07:25:41;;;;;;;0.20;0.10;;;18.50;99.90;;;;;;25649677;23;20193;-73
2022/05/10 07:46:09;;;;;;;0.20;0.10;;;18.60;99.90;;;;;;25619056;23;20190;-73
2022/05/10 07:56:14;;;;;;;0.20;0.10;;;18.70;99.90;;;;;;25648500;23;20186;-73
2022/05/10 08:06:29;;;;;;;0.20;0.10;;;18.90;99.90;;;;;;25648916;23;20209;-73
2022/05/10 08:16:34;;;;;;;0.20;0.00;;;19.30;99.90;;;;;;25645538;23;20196;-73
2022/05/10 08:26:38;;;;;;;0.20;0.10;;;19.40;99.90;;;;;;25622166;23;20189;-72
2022/05/10 08:36:46;;;;;;;0.20;0.10;;;19.60;99.90;;;;;;25652503;23;20201;-73
2022/05/10 08:46:55;;;;;;;0.20;0.10;;;19.40;99.90;;;;;;25651359;23;20355;-73
2022/05/10 08:57:07;;;;;;;0.20;0.10;;;19.60;99.90;;;;;;25640746;23;20225;-73
2022/05/10 09:07:20;;;;;;;0.20;0.10;;;20.10;99.90;;;;;;25641190;23;20281;-73
2022/05/10 09:17:29;;;;;;;0.20;0.10;;;20.10;99.90;;;;;;25614035;23;20159;-72
2022/05/10 09:27:35;;;;;;;0.20;0.00;;;20.00;99.90;;;;;;25611606;23;20194;-72
2022/05/10 09:37:45;;;;;;;0.20;0.10;;;20.00;99.90;;;;;;25639257;23;20177;-72
2022/05/10 09:48:02;;;;;;;0.20;0.10;;;20.30;99.90;;;;;;25624957;23;20186;-71
2022/05/10 09:58:18;;;;;;;0.20;0.10;;;20.70;99.90;;;;;;25626606;23;20194;-73
2022/05/10 10:08:38;;;;;;;0.60;0.60;;;21.00;99.90;;;;;;25652987;23;20500;-70
2022/05/10 10:18:48;;;;;;;0.20;0.10;;;21.50;99.90;;;;;;25638893;23;20178;-72
2022/05/10 10:28:56;;;;;;;0.20;0.00;;;21.70;99.90;;;;;;25639010;23;20201;-71
2022/05/10 10:39:12;;;;;;;0.20;0.00;;;22.00;99.90;;;;;;25607060;23;20170;-74
2022/05/10 10:49:21;;;;;;;0.20;0.00;;;22.50;99.90;;;;;;25637457;23;20174;-71
2022/05/10 10:59:50;;;;;;;0.20;0.00;;;22.50;99.90;;;;;;25613386;23;20236;-71
2022/05/10 11:10:01;;;;;;;0.20;0.00;;;22.60;99.90;;;;;;25608843;23;20193;-72
2022/05/10 11:20:24;;;;;;;0.20;0.00;;;22.90;99.90;;;;;;25637649;23;20501;-72
2022/05/10 11:30:34;;;;;;;0.20;0.00;;;23.10;99.90;;;;;;25635952;23;20178;-73
2022/05/10 15:45:21;;;;;;;0.20;0.00;;;25.90;99.90;;;;;;26556062;22;2166592;-75
2022/05/10 15:55:26;;;;;;;0.20;0.00;;;25.80;99.90;;;;;;26511614;22;20200;-76
2022/05/10 16:05:32;;;;;;;0.20;0.00;;;24.60;99.90;;;;;;26538881;22;20157;-75
2022/05/10 16:15:38;;;;;;;0.20;0.00;;;23.00;99.90;;;;;;26519957;22;20236;-75
2022/05/10 16:25:44;;;;;;;0.20;0.00;;;22.50;99.90;;;;;;26527475;22;20196;-79
2022/05/10 16:35:47;;;;;;;0.20;0.00;;;22.50;99.90;;;;;;26556675;22;20192;-74
2022/05/10 16:45:57;;;;;;;0.20;0.03;;;22.50;99.90;;;;;;26528117;22;20209;-74
2022/05/10 16:56:02;;;;;;;0.20;0.00;;;22.30;99.90;;;;;;26523943;22;20197;-75
2022/05/10 17:06:08;;;;;;;0.20;0.00;;;22.10;99.90;;;;;;26525416;22;20218;-74
2022/05/10 17:16:12;;;;;;;0.20;0.00;;;22.40;99.90;;;;;;26529128;22;20181;-76
2022/05/10 17:26:17;;;;;;;0.20;0.00;;;22.50;99.90;;;;;;26554716;22;20177;-75
2022/05/10 17:36:21;;;;;;;0.20;0.10;;;21.90;99.90;;;;;;26555468;22;20185;-73
2022/05/10 17:46:27;;;;;;;0.20;0.00;;;21.30;99.90;;;;;;26534693;22;20184;-77
2022/05/10 17:56:31;;;;;;;0.20;0.00;;;20.70;99.90;;;;;;26559327;22;20189;-74
2022/05/10 18:06:36;;;;;;;0.20;0.10;;;20.70;99.90;;;;;;26556917;22;20166;-76
2022/05/10 18:16:40;;;;;;;0.20;0.00;;;20.10;99.90;;;;;;26556317;22;20218;-77
2022/05/10 18:26:45;;;;;;;0.20;0.10;;;19.90;99.90;;;;;;26555959;22;20157;-73
2022/05/10 18:36:49;;;;;;;0.20;0.10;;;20.20;99.90;;;;;;26522901;22;20177;-76
2022/05/10 18:46:54;;;;;;;0.20;0.10;;;19.90;99.90;;;;;;26526545;22;20186;-75
2022/05/10 18:56:58;;;;;;;0.20;0.00;;;19.80;99.90;;;;;;26527404;22;20189;-76
2022/05/10 19:07:04;;;;;;;0.20;0.10;;;19.50;99.90;;;;;;26526376;22;20181;-76
2022/05/10 19:17:07;;;;;;;0.20;0.10;;;19.40;99.90;;;;;;26551163;22;20178;-74
2022/05/10 19:27:13;;;;;;;0.20;0.00;;;19.50;99.90;;;;;;26547827;22;20172;-74
2022/05/10 19:37:20;;;;;;;0.20;0.10;;;19.40;99.90;;;;;;26548375;22;20185;-74
2022/05/10 19:47:25;;;;;;;0.20;0.00;;;19.40;99.90;;;;;;26522408;22;20189;-75
2022/05/10 19:57:30;;;;;;;0.20;0.00;;;18.90;99.90;;;;;;26532125;22;20212;-75
2022/05/10 20:07:35;;;;;;;0.20;0.10;;;18.70;99.90;;;;;;26560714;22;20238;-74
2022/05/10 20:17:45;;;;;;;0.20;0.00;;;18.40;99.90;;;;;;26563960;22;20200;-74
2022/05/10 20:27:50;;;;;;;0.20;0.00;;;18.30;99.90;;;;;;26561015;22;20153;-73
2022/05/10 20:37:54;;;;;;;0.20;0.00;;;18.50;99.90;;;;;;26537760;22;20185;-73
2022/05/10 20:48:01;;;;;;;0.20;0.00;;;18.20;99.90;;;;;;26562503;22;20205;-72
2022/05/10 20:58:05;;;;;;;0.20;0.10;;;17.80;99.90;;;;;;26532781;22;20257;-72
2022/05/10 21:08:30;;;;;;;0.20;0.10;;;17.80;99.90;;;;;;26508440;22;20165;-72
2022/05/10 21:18:35;;;;;;;0.20;0.10;;;18.00;99.90;;;;;;26561357;22;20184;-72
2022/05/10 21:28:41;;;;;;;0.20;0.10;;;18.10;99.90;;;;;;26533807;22;20176;-73
2022/05/10 21:38:45;;;;;;;0.20;0.10;;;18.00;99.90;;;;;;26530344;22;20244;-73
2022/05/10 21:48:50;;;;;;;0.20;0.00;;;17.90;99.90;;;;;;26529225;22;20187;-71
2022/05/10 21:58:54;;;;;;;0.20;0.10;;;17.90;99.90;;;;;;26560158;22;20186;-72
2022/05/10 22:08:59;;;;;;;0.20;0.10;;;17.50;99.90;;;;;;26529459;22;20161;-71
2022/05/10 22:19:04;;;;;;;0.20;0.10;;;17.10;99.90;;;;;;26527748;22;20185;-71
2022/05/10 22:29:09;;;;;;;0.20;0.00;;;17.10;99.90;;;;;;26557074;22;20161;-72
2022/05/10 22:39:13;;;;;;;0.20;0.10;;;16.80;99.90;;;;;;26528376;22;20193;-72
2022/05/10 22:49:18;;;;;;;0.20;0.10;;;16.70;99.90;;;;;;26529150;22;20189;-71
2022/05/10 22:59:22;;;;;;;0.20;0.10;;;16.40;99.90;;;;;;26555080;22;20181;-73
2022/05/10 23:09:27;;;;;;;0.20;0.10;;;16.40;99.90;;;;;;26530458;22;20161;-72
2022/05/10 23:19:33;;;;;;;0.20;0.00;;;16.50;99.90;;;;;;26525401;22;20188;-72
2022/05/10 23:29:39;;;;;;;0.20;0.00;;;16.00;99.90;;;;;;26557795;22;20154;-73
2022/05/10 23:39:43;;;;;;;0.20;0.00;;;16.00;99.90;;;;;;26528087;22;20292;-72
2022/05/10 23:49:48;;;;;;;0.20;0.10;;;16.10;99.90;;;;;;26558548;22;20185;-72
2022/05/10 23:59:52;;;;;;;0.20;0.00;;;15.90;99.90;;;;;;26532507;22;20244;-72
